createdAt,value
2023-03-04T00:02:23.399Z,74.90
2023-03-04T00:04:50.267Z,70.17
2023-03-04T00:07:18.854Z,71.73
2023-03-04T00:09:46.093Z,73.23
2023-03-04T00:12:13.236Z,70.90
2023-03-04T00:14:40.305Z,71.07
2023-03-04T00:17:07.138Z,78.43
2023-03-04T00:19:35.007Z,76.70
2023-03-04T00:22:02.185Z,81.93
2023-03-04T00:24:28.812Z,74.73
2023-03-04T00:26:55.407Z,76.07
2023-03-04T00:29:22.215Z,79.37
2023-03-04T00:31:48.922Z,75.27
2023-03-04T00:34:15.527Z,75.70
2023-03-04T00:36:44.659Z,80.30
2023-03-04T00:39:12.441Z,74.20
2023-03-04T00:41:39.668Z,73.13
2023-03-04T00:44:06.589Z,86.50
2023-03-04T00:46:33.458Z,78.07
2023-03-04T00:49:00.094Z,78.37
2023-03-04T00:51:26.808Z,76.43
2023-03-04T00:53:53.480Z,76.57
2023-03-04T00:56:20.089Z,85.20
2023-03-04T00:58:46.817Z,75.40
2023-03-04T01:01:13.419Z,79.03
2023-03-04T01:03:41.500Z,77.93
2023-03-04T01:06:08.429Z,77.03
2023-03-04T01:08:35.023Z,82.57
2023-03-04T01:11:01.613Z,89.00
2023-03-04T01:13:28.255Z,76.63
2023-03-04T01:15:55.957Z,70.17
2023-03-04T01:18:22.596Z,73.83
2023-03-04T01:20:49.200Z,81.03
2023-03-04T01:23:15.902Z,77.63
2023-03-04T01:25:42.827Z,79.00
2023-03-04T01:28:09.481Z,77.93
2023-03-04T01:30:36.104Z,72.37
2023-03-04T01:33:02.775Z,74.80
2023-03-04T01:35:29.433Z,79.57
2023-03-04T01:37:56.943Z,84.07
2023-03-04T01:40:23.922Z,74.67
2023-03-04T01:42:51.021Z,76.93
2023-03-04T01:45:19.948Z,72.47
2023-03-04T01:47:49.165Z,75.53
2023-03-04T01:50:31.543Z,78.60
2023-03-04T01:52:58.157Z,72.37
2023-03-04T01:55:25.127Z,80.90
2023-03-04T01:57:53.053Z,79.07
2023-03-04T02:00:27.016Z,79.00
2023-03-04T02:03:11.355Z,84.40
2023-03-04T02:05:41.273Z,76.00
2023-03-04T02:08:09.273Z,80.60
2023-03-04T02:10:37.245Z,78.70
2023-03-04T02:13:06.249Z,83.73
2023-03-04T02:15:33.549Z,72.77
2023-03-04T02:18:01.194Z,81.37
2023-03-04T02:21:08.213Z,79.07
2023-03-04T02:24:10.406Z,76.00
2023-03-04T02:26:39.786Z,78.30
2023-03-04T02:29:06.451Z,78.90
2023-03-04T02:31:39.888Z,74.73
2023-03-04T02:34:12.601Z,74.07
2023-03-04T02:36:40.349Z,82.57
2023-03-04T02:39:13.090Z,77.03
2023-03-04T02:41:40.035Z,76.37
2023-03-04T02:44:20.964Z,79.57
2023-03-04T02:46:48.193Z,75.97
2023-03-04T02:49:15.099Z,73.10
2023-03-04T02:51:41.687Z,72.23
2023-03-04T02:54:16.057Z,75.40
2023-03-04T02:56:51.837Z,76.37
2023-03-04T02:59:19.770Z,72.50
2023-03-04T03:01:46.543Z,75.80
2023-03-04T03:04:14.128Z,80.10
2023-03-04T03:06:41.994Z,76.47
2023-03-04T03:09:09.400Z,75.87
2023-03-04T03:11:36.530Z,76.30
2023-03-04T03:14:04.108Z,80.07
2023-03-04T03:16:31.140Z,81.83
2023-03-04T03:18:57.889Z,75.80
2023-03-04T03:21:24.719Z,80.80
2023-03-04T03:23:51.321Z,78.93
2023-03-04T03:26:19.841Z,75.37
2023-03-04T03:28:46.571Z,82.40
2023-03-04T03:31:13.540Z,79.60
2023-03-04T03:33:40.300Z,81.60
2023-03-04T03:36:08.215Z,79.63
2023-03-04T03:38:35.295Z,81.03
2023-03-04T03:41:02.010Z,75.83
2023-03-04T03:43:28.792Z,77.17
2023-03-04T03:45:55.399Z,80.00
2023-03-04T03:48:22.088Z,83.17
2023-03-04T03:50:48.675Z,77.00
2023-03-04T03:53:15.282Z,82.03
2023-03-04T03:55:41.952Z,83.97
2023-03-04T03:58:08.550Z,86.47
2023-03-04T04:00:35.130Z,80.83
2023-03-04T04:03:02.100Z,79.53
2023-03-04T04:05:28.730Z,79.17
2023-03-04T04:07:56.059Z,79.43
2023-03-04T04:10:22.650Z,77.30
2023-03-04T04:12:49.312Z,73.17
2023-03-04T04:15:15.888Z,73.63
2023-03-04T04:17:42.548Z,77.70
2023-03-04T04:20:09.729Z,79.37
2023-03-04T04:22:36.323Z,75.07
2023-03-04T04:25:03.072Z,71.13
2023-03-04T04:27:29.734Z,72.47
2023-03-04T04:29:56.284Z,71.13
2023-03-04T04:32:22.926Z,67.83
2023-03-04T04:34:49.630Z,70.17
2023-03-04T04:37:16.239Z,66.13
2023-03-04T04:39:42.824Z,70.30
2023-03-04T04:42:11.258Z,67.57
2023-03-04T04:44:39.098Z,63.07
2023-03-04T04:47:07.261Z,65.57
2023-03-04T04:49:34.292Z,69.33
2023-03-04T04:52:00.938Z,65.53
2023-03-04T04:54:27.589Z,59.90
2023-03-04T04:56:54.132Z,63.87
2023-03-04T04:59:20.768Z,58.57
2023-03-04T05:01:47.673Z,61.00
2023-03-04T05:04:14.312Z,59.13
2023-03-04T05:06:41.275Z,56.37
2023-03-04T05:09:07.993Z,56.77
2023-03-04T05:11:34.768Z,55.30
2023-03-04T05:14:01.426Z,55.27
2023-03-04T05:16:27.968Z,55.37
2023-03-04T05:18:54.563Z,54.30
2023-03-04T05:21:21.323Z,51.70
2023-03-04T05:23:47.955Z,55.30
2023-03-04T05:26:17.243Z,56.87
2023-03-04T05:28:44.640Z,63.50
2023-03-04T05:31:11.924Z,61.83
2023-03-04T05:33:38.580Z,50.57
2023-03-04T05:36:06.644Z,55.87
2023-03-04T05:38:33.333Z,52.83
2023-03-04T05:41:03.523Z,60.73
2023-03-04T05:43:31.629Z,57.10
2023-03-04T05:45:58.213Z,56.13
2023-03-04T05:48:24.864Z,55.00
2023-03-04T05:51:00.452Z,54.77
2023-03-04T05:53:28.552Z,51.00
2023-03-04T05:55:55.882Z,55.10
2023-03-04T05:58:23.027Z,58.17
2023-03-04T06:00:49.636Z,56.63
2023-03-04T06:03:18.603Z,59.00
2023-03-04T06:05:45.297Z,57.47
2023-03-04T06:08:12.370Z,57.80
2023-03-04T06:10:40.935Z,58.70
2023-03-04T06:13:08.387Z,51.50
2023-03-04T06:15:35.044Z,61.77
2023-03-04T06:18:02.176Z,57.03
2023-03-04T06:20:28.847Z,52.43
2023-03-04T06:22:56.605Z,57.73
2023-03-04T06:25:23.313Z,53.97
2023-03-04T06:27:50.889Z,51.43
2023-03-04T06:30:18.549Z,53.23
2023-03-04T06:32:46.130Z,51.13
2023-03-04T06:35:14.533Z,54.93
2023-03-04T06:37:41.232Z,58.87
2023-03-04T06:40:09.300Z,52.30
2023-03-04T06:42:36.568Z,47.17
2023-03-04T06:45:04.426Z,53.10
2023-03-04T06:47:31.002Z,50.00
2023-03-04T06:49:57.589Z,51.17
2023-03-04T06:52:24.263Z,54.17
2023-03-04T06:54:50.876Z,51.50
2023-03-04T06:57:17.549Z,50.50
2023-03-04T06:59:44.151Z,51.17
2023-03-04T07:02:21.458Z,48.87
2023-03-04T07:04:48.189Z,47.47
2023-03-04T07:07:14.766Z,49.47
2023-03-04T07:09:41.400Z,48.60
2023-03-04T07:12:08.074Z,49.23
2023-03-04T07:14:34.678Z,48.67
2023-03-04T07:17:01.369Z,52.57
2023-03-04T07:19:28.016Z,62.13
2023-03-04T07:21:54.567Z,48.47
2023-03-04T07:24:21.208Z,49.73
2023-03-04T07:26:47.757Z,51.07
2023-03-04T07:29:14.423Z,47.20
2023-03-04T07:31:41.110Z,45.63
2023-03-04T07:34:15.154Z,44.67
2023-03-04T07:36:42.356Z,47.37
2023-03-04T07:39:11.422Z,43.67
2023-03-04T07:41:38.084Z,44.37
2023-03-04T07:44:06.697Z,46.63
2023-03-04T07:46:33.911Z,44.53
2023-03-04T07:49:00.670Z,43.83
2023-03-04T07:51:27.933Z,42.53
2023-03-04T07:53:57.937Z,43.30
2023-03-04T07:56:27.114Z,42.00
2023-03-04T07:58:54.008Z,43.40
2023-03-04T08:01:23.918Z,34.27
2023-03-04T08:03:50.673Z,36.47
2023-03-04T08:06:19.096Z,35.07
2023-03-04T08:08:46.288Z,29.93
2023-03-04T08:11:15.749Z,26.30
2023-03-04T08:13:42.622Z,30.10
2023-03-04T08:16:12.636Z,23.43
2023-03-04T08:18:40.537Z,23.10
2023-03-04T08:21:10.341Z,24.40
2023-03-04T08:23:37.170Z,23.50
2023-03-04T08:26:09.646Z,28.57
2023-03-04T08:28:36.522Z,22.40
2023-03-04T08:31:03.752Z,29.03
2023-03-04T08:33:31.381Z,25.60
2023-03-04T08:35:58.103Z,27.27
2023-03-04T08:38:24.775Z,30.13
2023-03-04T08:40:57.698Z,26.57
2023-03-04T08:43:25.863Z,30.30
2023-03-04T08:45:54.331Z,27.47
2023-03-04T08:48:21.850Z,29.23
2023-03-04T08:50:49.302Z,29.13
2023-03-04T08:53:16.681Z,29.87
2023-03-04T08:55:43.529Z,31.10
2023-03-04T08:58:10.922Z,36.57
2023-03-04T09:00:42.957Z,33.47
2023-03-04T09:03:12.279Z,37.73
2023-03-04T09:05:39.175Z,34.23
2023-03-04T09:08:06.214Z,39.30
2023-03-04T09:10:32.900Z,41.63
2023-03-04T09:12:59.544Z,34.27
2023-03-04T09:15:26.164Z,41.00
2023-03-04T09:17:53.027Z,40.50
2023-03-04T09:20:21.112Z,39.80
2023-03-04T09:22:47.678Z,40.10
2023-03-04T09:25:15.490Z,40.90
2023-03-04T09:27:42.134Z,35.27
2023-03-04T09:30:10.223Z,44.20
2023-03-04T09:32:36.974Z,40.03
2023-03-04T09:35:04.009Z,33.60
2023-03-04T09:37:30.662Z,44.33
2023-03-04T09:39:57.274Z,38.57
2023-03-04T09:42:51.963Z,40.57
2023-03-04T09:45:24.940Z,38.23
2023-03-04T09:47:54.252Z,36.90
2023-03-04T09:50:21.985Z,37.27
2023-03-04T09:53:12.875Z,33.57
2023-03-04T09:55:42.259Z,35.77
2023-03-04T09:58:36.935Z,29.87
2023-03-04T10:01:41.676Z,30.43
2023-03-04T10:04:41.428Z,44.07
2023-03-04T10:07:20.425Z,32.67
2023-03-04T10:10:04.965Z,30.53
2023-03-04T10:12:36.684Z,31.87
2023-03-04T10:15:26.956Z,26.87
2023-03-04T10:18:02.734Z,32.70
2023-03-04T10:20:44.157Z,33.90
2023-03-04T10:23:18.185Z,24.90
2023-03-04T10:25:47.067Z,31.67
2023-03-04T10:28:20.205Z,27.83
2023-03-04T10:31:05.002Z,28.40
2023-03-04T10:33:37.231Z,27.17
2023-03-04T10:36:06.933Z,27.83
2023-03-04T10:38:40.174Z,28.57
2023-03-04T10:41:20.428Z,32.17
2023-03-04T10:44:00.484Z,29.67
2023-03-04T10:46:27.278Z,22.53
2023-03-04T10:48:55.054Z,26.00
2023-03-04T10:51:23.263Z,26.33
2023-03-04T10:54:10.182Z,26.73
2023-03-04T10:56:46.366Z,22.63
2023-03-04T10:59:33.920Z,24.13
2023-03-04T11:02:13.379Z,23.93
2023-03-04T11:04:40.215Z,28.47
2023-03-04T11:07:11.028Z,26.70
2023-03-04T11:09:40.162Z,24.30
2023-03-04T11:12:15.377Z,30.73
2023-03-04T11:14:49.128Z,25.63
2023-03-04T11:17:45.541Z,24.47
2023-03-04T11:20:38.026Z,25.40
2023-03-04T11:23:11.319Z,19.83
2023-03-04T11:25:44.028Z,22.57
2023-03-04T11:28:26.712Z,28.33
2023-03-04T11:31:10.147Z,23.87
2023-03-04T11:33:45.539Z,23.43
2023-03-04T11:36:12.137Z,23.93
2023-03-04T11:38:46.892Z,23.03
2023-03-04T11:41:20.535Z,24.17
2023-03-04T11:43:47.922Z,24.00
2023-03-04T11:46:50.845Z,19.47
2023-03-04T11:49:58.927Z,24.23
2023-03-04T11:52:40.016Z,19.80
2023-03-04T11:55:09.464Z,23.97
2023-03-04T11:57:47.819Z,22.00
2023-03-04T12:00:36.026Z,25.40
2023-03-04T12:03:44.383Z,23.37
2023-03-04T12:06:22.824Z,24.27
2023-03-04T12:09:17.295Z,22.33
2023-03-04T12:11:50.182Z,20.33
2023-03-04T12:14:25.538Z,23.30
2023-03-04T12:17:20.359Z,24.83
2023-03-04T12:20:08.744Z,26.63
2023-03-04T12:22:51.444Z,21.50
2023-03-04T12:25:33.764Z,23.53
2023-03-04T12:28:22.976Z,22.23
2023-03-04T12:31:07.786Z,18.37
2023-03-04T12:33:51.375Z,22.33
2023-03-04T12:36:56.604Z,20.77
2023-03-04T12:39:37.981Z,16.53
2023-03-04T12:42:17.192Z,18.53
2023-03-04T12:45:07.273Z,18.20
2023-03-04T12:48:15.053Z,16.87
2023-03-04T12:51:04.921Z,17.13
2023-03-04T12:54:23.954Z,15.80
2023-03-04T12:57:00.910Z,15.30
2023-03-04T12:59:34.303Z,12.67
2023-03-04T13:02:10.069Z,13.80
2023-03-04T13:05:14.149Z,11.57
2023-03-04T13:08:19.906Z,8.73
2023-03-04T13:10:46.566Z,9.93
2023-03-04T13:13:42.473Z,10.53
2023-03-04T13:16:11.964Z,10.17
2023-03-04T13:18:39.557Z,9.73
2023-03-04T13:21:12.252Z,11.03
2023-03-04T13:23:39.658Z,9.40
2023-03-04T13:26:10.241Z,9.20
2023-03-04T13:28:37.417Z,8.47
2023-03-04T13:31:09.754Z,10.00
2023-03-04T13:33:36.350Z,11.43
2023-03-04T13:36:25.608Z,9.37
2023-03-04T13:39:17.006Z,9.30
2023-03-04T13:41:49.922Z,9.27
2023-03-04T13:44:51.768Z,7.23
2023-03-04T13:47:21.422Z,8.60
2023-03-04T13:49:48.416Z,6.60
2023-03-04T13:52:44.356Z,10.63
2023-03-04T13:55:33.274Z,9.07
2023-03-04T13:58:00.616Z,8.27
2023-03-04T14:00:28.776Z,9.37
2023-03-04T14:02:55.586Z,9.40
2023-03-04T14:05:22.222Z,9.00
2023-03-04T14:07:48.923Z,7.13
2023-03-04T14:10:24.802Z,7.70
2023-03-04T14:12:57.647Z,7.63
2023-03-04T14:15:29.364Z,7.60
2023-03-04T14:18:05.299Z,9.93
2023-03-04T14:20:37.504Z,6.17
2023-03-04T14:23:23.563Z,7.93
2023-03-04T14:25:50.367Z,7.17
2023-03-04T14:28:20.803Z,7.93
2023-03-04T14:31:01.917Z,6.70
2023-03-04T14:33:33.598Z,5.33
2023-03-04T14:36:04.697Z,7.37
2023-03-04T14:38:38.600Z,6.53
2023-03-04T14:41:19.347Z,9.17
2023-03-04T14:44:08.138Z,7.53
2023-03-04T14:46:41.157Z,7.43
2023-03-04T14:49:17.204Z,9.57
2023-03-04T14:51:53.543Z,6.93
2023-03-04T14:54:34.228Z,8.00
2023-03-04T14:57:27.535Z,9.00
2023-03-04T14:59:55.603Z,9.20
2023-03-04T15:02:38.937Z,9.73
2023-03-04T15:05:25.450Z,9.20
2023-03-04T15:07:59.536Z,7.83
2023-03-04T15:10:30.158Z,10.27
2023-03-04T15:13:03.355Z,9.87
2023-03-04T15:15:39.807Z,9.23
2023-03-04T15:18:28.439Z,8.30
2023-03-04T15:21:00.725Z,7.53
2023-03-04T15:23:30.274Z,9.57
2023-03-04T15:26:02.096Z,8.67
2023-03-04T15:28:37.119Z,9.63
2023-03-04T15:31:14.797Z,9.87
2023-03-04T15:33:41.474Z,8.27
2023-03-04T15:36:14.139Z,7.77
2023-03-04T15:38:43.675Z,8.07
2023-03-04T15:41:12.348Z,8.80
2023-03-04T15:43:39.380Z,8.13
2023-03-04T15:46:06.665Z,7.03
2023-03-04T15:48:33.417Z,8.20
2023-03-04T15:51:02.317Z,8.20
2023-03-04T15:53:36.588Z,10.07
2023-03-04T15:56:08.137Z,9.43
2023-03-04T15:58:35.432Z,6.97
2023-03-04T16:01:02.649Z,11.27
2023-03-04T16:03:29.439Z,8.00
2023-03-04T16:05:57.176Z,8.17
2023-03-04T16:08:27.386Z,8.23
2023-03-04T16:10:54.820Z,8.93
2023-03-04T16:13:23.883Z,9.57
2023-03-04T16:15:50.883Z,6.43
2023-03-04T16:18:18.095Z,6.77
2023-03-04T16:20:47.681Z,9.90
2023-03-04T16:23:18.762Z,7.87
2023-03-04T16:25:47.137Z,7.07
2023-03-04T16:28:14.070Z,8.63
2023-03-04T16:30:41.690Z,7.57
2023-03-04T16:33:08.970Z,7.70
2023-03-04T16:35:37.732Z,7.03
2023-03-04T16:38:07.288Z,10.03
2023-03-04T16:40:33.953Z,6.50
2023-03-04T16:43:00.537Z,8.73
2023-03-04T16:45:30.262Z,8.23
2023-03-04T16:47:57.216Z,7.23
2023-03-04T16:50:27.380Z,7.93
2023-03-04T16:52:55.710Z,7.70
2023-03-04T16:55:28.205Z,7.73
2023-03-04T16:57:56.155Z,10.47
2023-03-04T17:00:24.059Z,6.93
2023-03-04T17:03:08.451Z,25.70
2023-03-04T17:05:35.089Z,14.07
2023-03-04T17:08:01.694Z,8.50
2023-03-04T17:10:28.364Z,6.73
2023-03-04T17:12:54.997Z,7.27
2023-03-04T17:15:21.682Z,7.60
2023-03-04T17:17:48.442Z,9.27
2023-03-04T17:20:17.234Z,7.07
2023-03-04T17:22:44.478Z,7.60
2023-03-04T17:25:12.457Z,9.07
2023-03-04T17:27:39.358Z,7.27
2023-03-04T17:30:08.017Z,6.93
2023-03-04T17:32:35.677Z,9.00
2023-03-04T17:35:03.333Z,8.40
2023-03-04T17:37:29.978Z,10.27
2023-03-04T17:39:56.555Z,9.10
2023-03-04T17:42:23.144Z,10.73
2023-03-04T17:44:49.823Z,10.60
2023-03-04T17:47:17.207Z,10.73
2023-03-04T17:49:43.830Z,8.80
2023-03-04T17:52:11.186Z,13.30
2023-03-04T17:54:38.054Z,9.77
2023-03-04T17:57:04.709Z,7.63
2023-03-04T17:59:31.488Z,9.83
2023-03-04T18:01:58.197Z,7.60
2023-03-04T18:04:24.878Z,8.07
2023-03-04T18:06:51.457Z,8.03
2023-03-04T18:09:18.066Z,7.83
2023-03-04T18:11:44.906Z,6.90
2023-03-04T18:14:12.760Z,8.50
2023-03-04T18:16:39.879Z,7.70
2023-03-04T18:19:06.481Z,7.43
2023-03-04T18:21:33.190Z,6.30
2023-03-04T18:24:00.034Z,8.60
2023-03-04T18:26:27.724Z,12.70
2023-03-04T18:28:55.422Z,8.27
2023-03-04T18:31:24.743Z,8.17
2023-03-04T18:33:51.722Z,12.37
2023-03-04T18:36:18.397Z,30.00
2023-03-04T18:38:45.048Z,11.13
2023-03-04T18:41:13.670Z,12.03
2023-03-04T18:43:40.765Z,8.47
2023-03-04T18:46:16.523Z,12.60
2023-03-04T18:48:49.657Z,13.37
2023-03-04T18:51:16.578Z,20.90
2023-03-04T18:53:43.148Z,14.07
2023-03-04T18:56:14.243Z,35.67
2023-03-04T18:58:44.247Z,20.60
2023-03-04T19:01:13.911Z,20.10
2023-03-04T19:03:41.791Z,8.33
2023-03-04T19:06:09.103Z,8.23
2023-03-04T19:08:35.891Z,8.60
2023-03-04T19:11:02.528Z,6.90
2023-03-04T19:13:30.705Z,8.33
2023-03-04T19:15:57.340Z,7.03
2023-03-04T19:18:24.782Z,6.70
2023-03-04T19:20:51.456Z,7.07
2023-03-04T19:23:18.144Z,13.83
2023-03-04T19:25:45.031Z,7.03
2023-03-04T19:28:12.129Z,7.47
2023-03-04T19:30:40.125Z,7.33
2023-03-04T19:33:07.173Z,8.10
2023-03-04T19:35:34.181Z,7.23
2023-03-04T19:38:01.070Z,7.90
2023-03-04T19:40:28.410Z,6.60
2023-03-04T19:42:56.680Z,6.60
2023-03-04T19:45:24.854Z,7.57
2023-03-04T19:47:51.951Z,6.47
2023-03-04T19:50:19.242Z,8.57
2023-03-04T19:52:45.964Z,8.33
2023-03-04T19:55:15.075Z,7.10
2023-03-04T19:57:44.824Z,7.00
2023-03-04T20:00:12.679Z,7.20
2023-03-04T20:02:39.991Z,7.00
2023-03-04T20:05:07.221Z,7.47
2023-03-04T20:07:33.833Z,8.73
2023-03-04T20:10:00.446Z,7.63
2023-03-04T20:12:27.313Z,9.53
2023-03-04T20:14:54.010Z,12.23
2023-03-04T20:17:20.750Z,8.33
2023-03-04T20:19:47.482Z,8.97
2023-03-04T20:22:14.089Z,10.37
2023-03-04T20:24:40.689Z,9.93
2023-03-04T20:27:07.296Z,10.37
2023-03-04T20:29:33.904Z,10.57
2023-03-04T20:32:01.431Z,11.73
2023-03-04T20:34:28.096Z,10.17
2023-03-04T20:36:54.692Z,13.83
2023-03-04T20:39:29.286Z,12.87
2023-03-04T20:41:59.528Z,14.13
2023-03-04T20:44:27.283Z,18.60
2023-03-04T20:46:53.896Z,19.63
2023-03-04T20:49:25.548Z,21.43
2023-03-04T20:52:03.346Z,24.73
2023-03-04T20:54:30.748Z,18.73
2023-03-04T20:56:57.567Z,15.70
2023-03-04T20:59:24.420Z,22.77
2023-03-04T21:01:52.400Z,17.40
2023-03-04T21:04:20.349Z,20.27
2023-03-04T21:06:51.683Z,20.93
2023-03-04T21:09:20.786Z,19.10
2023-03-04T21:11:48.734Z,21.23
2023-03-04T21:14:23.072Z,22.40
2023-03-04T21:16:53.416Z,18.43
2023-03-04T21:19:22.833Z,17.63
2023-03-04T21:21:50.748Z,18.87
2023-03-04T21:24:20.725Z,17.03
2023-03-04T21:26:48.053Z,17.07
2023-03-04T21:29:16.569Z,18.83
2023-03-04T21:31:53.422Z,17.03
2023-03-04T21:34:28.241Z,15.70
2023-03-04T21:36:54.837Z,16.43
2023-03-04T21:39:24.133Z,18.97
2023-03-04T21:41:51.353Z,20.93
2023-03-04T21:44:28.015Z,18.37
2023-03-04T21:46:59.937Z,19.70
2023-03-04T21:49:26.772Z,18.80
2023-03-04T21:51:53.506Z,18.30
2023-03-04T21:54:20.316Z,18.83
2023-03-04T21:56:46.947Z,17.87
2023-03-04T21:59:14.634Z,17.37
2023-03-04T22:01:41.743Z,19.23
2023-03-04T22:04:08.948Z,19.23
2023-03-04T22:06:35.799Z,16.70
2023-03-04T22:09:04.699Z,16.27
2023-03-04T22:11:32.220Z,18.60
2023-03-04T22:14:01.940Z,18.43
2023-03-04T22:16:29.117Z,17.17
2023-03-04T22:18:55.863Z,18.60
2023-03-04T22:21:23.489Z,17.67
2023-03-04T22:23:50.325Z,19.67
2023-03-04T22:26:21.055Z,18.57
2023-03-04T22:28:47.801Z,18.73
2023-03-04T22:31:16.158Z,16.30
2023-03-04T22:33:44.411Z,18.50
2023-03-04T22:36:12.721Z,17.27
2023-03-04T22:38:40.445Z,14.43
2023-03-04T22:41:14.483Z,17.10
2023-03-04T22:43:41.705Z,17.10
2023-03-04T22:46:24.639Z,17.57
2023-03-04T22:48:56.311Z,17.10
2023-03-04T22:51:23.411Z,15.83
2023-03-04T22:53:51.937Z,15.03
2023-03-04T22:56:19.773Z,16.47
2023-03-04T22:58:46.972Z,14.03
2023-03-04T23:01:16.734Z,16.63
2023-03-04T23:03:45.661Z,14.57
2023-03-04T23:06:18.197Z,16.20
2023-03-04T23:08:46.972Z,15.47
2023-03-04T23:11:16.881Z,12.93
2023-03-04T23:13:44.631Z,14.87
2023-03-04T23:16:13.773Z,13.83
2023-03-04T23:18:43.695Z,15.50
2023-03-04T23:21:13.939Z,14.50
2023-03-04T23:23:41.652Z,15.03
2023-03-04T23:26:21.174Z,14.50
2023-03-04T23:28:48.453Z,15.97
2023-03-04T23:31:15.870Z,12.80
2023-03-04T23:33:45.076Z,13.43
2023-03-04T23:36:15.225Z,10.20
2023-03-04T23:38:44.199Z,13.03
2023-03-04T23:41:13.950Z,12.30
2023-03-04T23:43:40.976Z,13.07
2023-03-04T23:46:09.366Z,11.67
2023-03-04T23:48:36.770Z,14.97
2023-03-04T23:51:03.941Z,13.47
2023-03-04T23:53:34.441Z,13.87
2023-03-04T23:56:01.093Z,12.13
2023-03-04T23:58:28.429Z,12.57
